Samuels, Idaho
Current Conditions -  °F | °C
As of 9:35 PM on Wednesday 26 Nov 2014 (Local Time) from KSZT Reporting Station
Light Rain Light Rain  
Wind Chill: 34°   Ceiling: 2400
Heat Index: 34°   Visibility: 1.7mi
Dew Point: 34°   Wind: 0mph
Humidity: 100%   Direction: NA
Pressure: 30.01"   Gusts: NA
Location:  48.48°N, 116.46°W
Report Text: KSZT 270535Z AUTO 00000KT 1 3/4SM -RA OVC024 01/01 A3001 RMK AO2
Loading
Personal Weather Stations






























Interactive Weather Map New forecast layout! Learn more

10-Day Weather Forecast

Advertisements
Track Severe Weather on mobile